Stanger, South Africa
Current Conditions -  °F | °C
As of 6:00 PM on Friday 24 Oct 2014 (Local Time) from FALE Reporting Station
Broken Clouds Broken Clouds  
Wind Chill: 72°   Ceiling: 4800
Heat Index: 72°   Visibility: 6mi
Dew Point: 63°   Wind: 6mph
Humidity: 73%   Direction: 60°ENE
Pressure: 30"   Gusts: NA
Location:  29.34°S, 31.29°E
Report Text: FALE 241600Z 06005KT 9999 FEW018 BKN048 22/17 Q1016 NOSIG
Loading
Personal Weather Stations






























Interactive Weather Map
Tropical Storm Tracking
New forecast layout! Learn more

10-Day Weather Forecast

Advertisements
Track Severe Weather on mobile